createdAt,value
2017-10-08T00:06:40.000Z,65.7
2017-10-08T00:16:40.000Z,65.478
2017-10-08T00:26:40.000Z,65.497
2017-10-08T00:36:40.000Z,65.41
2017-10-08T00:46:40.000Z,65.482
2017-10-08T00:56:40.000Z,65.3
2017-10-08T01:06:40.000Z,65.444
2017-10-08T01:16:40.000Z,65.686
2017-10-08T01:26:42.000Z,65.736
2017-10-08T01:36:41.000Z,65.787
2017-10-08T01:46:41.000Z,65.701
2017-10-08T01:56:41.000Z,65.658
2017-10-08T02:06:41.000Z,66.054
2017-10-08T02:16:41.000Z,65.779
2017-10-08T02:26:41.000Z,66.157
2017-10-08T02:36:41.000Z,65.893
2017-10-08T02:46:41.000Z,65.733
2017-10-08T02:56:41.000Z,65.386
2017-10-08T03:06:41.000Z,65.477
2017-10-08T03:16:41.000Z,65.656
2017-10-08T03:26:41.000Z,65.443
2017-10-08T03:36:41.000Z,65.273
2017-10-08T03:46:41.000Z,65.346
2017-10-08T03:56:41.000Z,65.754
2017-10-08T04:06:41.000Z,65.607
2017-10-08T04:16:41.000Z,65.689
2017-10-08T04:26:41.000Z,65.605
2017-10-08T04:36:41.000Z,65.467
2017-10-08T04:46:41.000Z,65.205
2017-10-08T04:56:41.000Z,65.14
2017-10-08T05:06:41.000Z,64.972
2017-10-08T05:16:41.000Z,65.151
2017-10-08T05:26:41.000Z,65.234
2017-10-08T05:36:41.000Z,65.518
2017-10-08T05:46:41.000Z,65.509
2017-10-08T05:56:41.000Z,65.257
2017-10-08T06:06:41.000Z,65.541
2017-10-08T06:16:41.000Z,65.455
2017-10-08T06:26:41.000Z,65.717
2017-10-08T06:36:41.000Z,65.383
2017-10-08T06:46:41.000Z,64.865
2017-10-08T06:56:41.000Z,64.876
2017-10-08T07:06:41.000Z,64.592
2017-10-08T18:26:44.000Z,65.065
2017-10-08T18:36:43.000Z,66.272
2017-10-08T18:46:43.000Z,66.713
2017-10-08T18:56:44.000Z,66.888
2017-10-08T19:06:43.000Z,67.003
2017-10-08T19:26:43.000Z,67.202
2017-10-08T19:36:43.000Z,67.408
2017-10-08T19:46:43.000Z,67.124
2017-10-08T19:56:46.000Z,67.207
2017-10-08T20:06:43.000Z,66.991
2017-10-08T20:16:43.000Z,66.865
2017-10-08T20:26:44.000Z,67.384
2017-10-08T20:36:43.000Z,67.285
2017-10-08T20:46:43.000Z,67.291
2017-10-08T20:56:45.000Z,67.275
2017-10-08T21:06:43.000Z,67.334
2017-10-08T21:16:43.000Z,67.293
2017-10-08T21:26:43.000Z,67.638
2017-10-08T21:36:43.000Z,67.895
2017-10-08T21:46:43.000Z,67.929
2017-10-08T21:56:43.000Z,67.997
2017-10-08T22:06:43.000Z,67.947
2017-10-08T22:16:43.000Z,68.015
2017-10-08T22:26:43.000Z,68.05
2017-10-08T22:36:43.000Z,68.077
2017-10-08T22:46:43.000Z,68.06
2017-10-08T22:56:43.000Z,68.15
2017-10-08T23:06:43.000Z,68.039
2017-10-08T23:16:43.000Z,68.161
2017-10-08T23:26:43.000Z,68.122
2017-10-08T23:36:43.000Z,68.152
2017-10-08T23:46:43.000Z,68.083
2017-10-08T23:56:43.000Z,68.172
